• pl
  • eng

Awiacja
Kliknij na pogrubioną czerwoną nazwę, aby odkodować depeszę. 17:31 23.07.2019
  • WIND
  • SIGNIFICANT EURO
  • SIGNIFICANT
  • SIGMET
  • AIRMET
  • TAF FC
  • TAF FT
  • METAR GG30
  • METAR GG00


METAR EPBY 231530Z 34004KT 290V020 9999 SCT022 BKN026 22/17 Q1019 =

METAR EPGD 231530Z 27005KT 4000 -RADZ BR BKN003 OVC005 18/17 Q1019 =

METAR EPKK 231530Z 30006KT 270V340 9999 FEW013 SCT021 BKN027 19/17
Q1020 =

METAR EPKT 231530Z 31009KT 280V350 9999 SCT014 BKN017 19/15 Q1020 =

METAR EPLB 231530Z 33007KT 9999 FEW046 22/12 Q1017 =

METAR EPLL 231530Z 31007KT 270V340 9999 FEW027 BKN031 OVC035 21/14
Q1019 =

METAR EPMO 231530Z 32007KT 280V360 9999 SCT035 SCT042 22/13 Q1019 =

METAR EPPO 231530Z 32007KT 9999 BKN029 22/17 Q1020 =

METAR EPRA 231530Z NIL=

METAR EPRZ 231530Z 31009KT 260V340 9999 FEW040 22/15 Q1018 =

METAR EPSC 231530Z 33009KT 290V360 CAVOK 25/16 Q1020 =

METAR EPSY 231530Z 29007KT 260V340 9999 FEW040 22/12 Q1018=

METAR EPWA 231530Z 32008KT 9999 BKN046 22/13 Q1019 NOSIG=

METAR EPWR 231530Z 03010KT 350V070 9999 FEW042 26/17 Q1020 =

METAR EPZG 231530Z 34007KT 260V050 9999 FEW039 27/17 Q1020 =
Awiacja.imgw.pl jest pogodowym serwisem informacyjnym
Instytutu Meteorologii i Gospodarki Wodnej Państwowego Instytutu Badawczego.
Copyright IMGW PIB 2009-2011© Wszelkie prawa zastrzeżone.